Time;durP1;ratioP1;P1;durP2;ratioP2;P2;SDS_P1;SDS_P2;PMS_P1;PMS_P2;Temp;Humidity;BMP_temperature;BMP_pressure;BME280_temperature;BME280_humidity;BME280_pressure;Samples;Min_cycle;Max_cycle;Signal;HPM_P1;HPM_P2
2022/02/15 00:00:44;;;;;;;1.15;0.80;;;19.80;49.80;;;;;;5071962;28;20071;-75
2022/02/15 00:03:10;;;;;;;1.73;1.10;;;19.90;49.70;;;;;;5071953;28;20033;-75
2022/02/15 00:05:36;;;;;;;1.52;1.00;;;17.50;48.20;;;;;;5071694;28;20094;-75
2022/02/15 00:08:01;;;;;;;1.92;1.05;;;17.50;48.20;;;;;;5072015;28;20028;-75
2022/02/15 00:10:28;;;;;;;1.27;0.60;;;23.30;51.10;;;;;;5071972;28;20493;-75
2022/02/15 00:12:53;;;;;;;1.15;0.82;;;22.90;51.00;;;;;;5072181;28;20037;-75
2022/02/15 00:15:19;;;;;;;1.33;0.75;;;19.50;49.20;;;;;;5079469;28;20390;-75
2022/02/15 00:17:45;;;;;;;0.98;0.80;;;19.60;49.20;;;;;;5058226;28;20024;-75
2022/02/15 00:20:12;;;;;;;1.23;0.80;;;20.10;49.30;;;;;;5072016;28;20017;-75
2022/02/15 00:22:38;;;;;;;1.55;0.77;;;17.70;47.80;;;;;;5053933;28;20036;-75
2022/02/15 00:25:05;;;;;;;1.10;0.70;;;19.00;48.50;;;;;;5071743;28;20031;-75
2022/02/15 00:27:31;;;;;;;1.27;0.80;;;19.20;48.70;;;;;;5071608;28;20101;-75
2022/02/15 00:29:56;;;;;;;1.20;0.85;;;19.80;49.00;;;;;;5072249;28;20423;-75
2022/02/15 00:32:22;;;;;;;0.93;0.50;;;19.80;49.20;;;;;;5071279;28;20113;-75
2022/02/15 00:34:48;;;;;;;0.70;0.60;;;18.20;48.20;;;;;;5071443;28;20044;-75
2022/02/15 00:37:14;;;;;;;1.55;0.65;;;22.90;50.80;;;;;;5071552;28;20032;-75
2022/02/15 00:39:40;;;;;;;0.73;0.50;;;19.30;49.00;;;;;;5071606;28;20025;-75
2022/02/15 00:42:06;;;;;;;0.85;0.57;;;18.10;47.90;;;;;;5071232;28;20051;-75
2022/02/15 00:44:31;;;;;;;0.63;0.50;;;23.00;50.60;;;;;;5053586;28;20121;-75
2022/02/15 00:46:58;;;;;;;0.75;0.50;;;19.40;48.70;;;;;;5071475;28;20029;-75
2022/02/15 00:49:24;;;;;;;1.25;0.68;;;17.70;47.30;;;;;;5070634;28;20028;-75
2022/02/15 00:51:50;;;;;;;0.50;0.40;;;23.40;50.60;;;;;;5071142;28;20479;-75
2022/02/15 00:54:16;;;;;;;0.98;0.50;;;19.60;48.50;;;;;;5075147;28;20024;-75
2022/02/15 00:56:42;;;;;;;1.00;0.50;;;19.60;48.30;;;;;;5075094;28;20025;-75
2022/02/15 00:59:09;;;;;;;0.80;0.50;;;18.90;48.10;;;;;;5075100;28;20372;-74
2022/02/15 01:01:36;;;;;;;0.93;0.47;;;19.90;48.80;;;;;;5074606;28;20025;-74
2022/02/15 01:04:03;;;;;;;1.15;0.55;;;20.10;48.40;;;;;;5074778;28;20028;-74
2022/02/15 01:06:29;;;;;;;0.50;0.35;;;24.10;50.60;;;;;;5075226;28;20051;-74
2022/02/15 01:08:54;;;;;;;1.00;0.50;;;19.90;48.60;;;;;;5073384;28;20028;-74
2022/02/15 01:11:20;;;;;;;1.30;0.65;;;20.00;48.50;;;;;;5094716;28;20032;-74
2022/02/15 01:13:46;;;;;;;0.77;0.50;;;19.60;48.30;;;;;;5094897;28;20036;-74
2022/02/15 01:16:13;;;;;;;0.70;0.47;;;18.70;47.60;;;;;;5080339;28;20024;-74
2022/02/15 01:18:38;;;;;;;0.85;0.50;;;22.80;49.50;;;;;;5075014;28;20025;-74
2022/02/15 01:21:04;;;;;;;1.02;0.45;;;19.80;48.20;;;;;;5056508;28;20490;-74
2022/02/15 01:23:30;;;;;;;0.82;0.40;;;22.40;49.30;;;;;;5055061;28;20025;-74
2022/02/15 01:25:56;;;;;;;0.63;0.40;;;19.30;47.80;;;;;;5054627;28;20021;-74
2022/02/15 01:28:22;;;;;;;0.75;0.40;;;23.70;50.00;;;;;;5054536;28;20029;-74
2022/02/15 01:30:48;;;;;;;1.10;0.55;;;22.50;49.10;;;;;;5054445;28;20372;-74
2022/02/15 01:33:13;;;;;;;0.57;0.38;;;23.40;49.50;;;;;;5054927;28;20079;-74
2022/02/15 01:35:39;;;;;;;0.95;0.55;;;23.30;49.60;;;;;;5054630;28;20029;-74
2022/02/15 01:38:05;;;;;;;0.77;0.50;;;19.60;47.70;;;;;;5054233;28;20067;-74
2022/02/15 01:40:31;;;;;;;0.57;0.30;;;18.30;47.00;;;;;;5054531;28;20079;-74
2022/02/15 01:42:56;;;;;;;1.27;0.47;;;23.00;49.50;;;;;;5084349;28;20528;-74
2022/02/15 01:45:22;;;;;;;1.05;0.60;;;19.40;47.40;;;;;;5094814;28;20024;-74
2022/02/15 01:47:50;;;;;;;1.30;0.50;;;23.90;49.60;;;;;;5095311;28;20032;-74
2022/02/15 01:50:17;;;;;;;1.08;0.40;;;20.10;47.70;;;;;;5076002;28;20024;-74
2022/02/15 01:52:43;;;;;;;1.73;0.57;;;19.60;47.60;;;;;;5093129;28;20031;-74
2022/02/15 01:55:12;;;;;;;0.88;0.45;;;22.60;49.00;;;;;;5073585;28;20034;-74
2022/02/15 01:57:38;;;;;;;1.02;0.55;;;20.00;46.80;;;;;;5074211;28;20032;-74
2022/02/15 02:00:10;;;;;;;1.50;0.35;;;19.50;47.60;;;;;;5073937;28;20547;-74
2022/02/15 02:02:35;;;;;;;1.58;0.70;;;19.80;46.60;;;;;;5074394;28;20056;-74
2022/02/15 02:07:45;;;;;;;2.13;0.80;;;20.10;47.80;;;;;;5080792;28;20109;-74
2022/02/15 02:10:14;;;;;;;0.52;0.30;;;19.80;47.70;;;;;;5075847;28;20051;-74
2022/02/15 02:12:40;;;;;;;1.83;0.63;;;19.30;47.40;;;;;;5094169;28;20410;-74
2022/02/15 02:15:22;;;;;;;1.17;0.40;;;17.50;46.50;;;;;;5088535;28;20048;-74
2022/02/15 02:17:48;;;;;;;1.02;0.40;;;20.30;45.90;;;;;;5055895;28;20028;-74
2022/02/15 02:20:14;;;;;;;1.35;0.40;;;23.00;49.50;;;;;;5073977;28;20032;-74
2022/02/15 02:22:41;;;;;;;1.35;0.57;;;18.20;46.90;;;;;;5073630;28;20074;-74
2022/02/15 02:25:08;;;;;;;1.90;0.65;;;17.80;46.70;;;;;;5073186;28;20040;-74
2022/02/15 02:27:34;;;;;;;0.80;0.50;;;19.10;47.10;;;;;;5073375;28;20017;-74
2022/02/15 02:30:00;;;;;;;1.42;0.50;;;19.60;48.00;;;;;;5055500;28;20025;-74
2022/02/15 02:32:28;;;;;;;0.98;0.40;;;23.50;49.70;;;;;;5054984;28;20068;-74
2022/02/15 02:34:55;;;;;;;1.13;0.60;;;24.00;49.40;;;;;;5073483;28;20035;-74
2022/02/15 02:37:22;;;;;;;1.05;0.30;;;23.50;49.50;;;;;;5073519;28;20021;-74
2022/02/15 02:39:51;;;;;;;0.75;0.30;;;19.60;47.70;;;;;;5073219;28;20376;-74
2022/02/15 02:42:19;;;;;;;1.58;0.52;;;22.60;48.90;;;;;;5072754;28;20066;-75
2022/02/15 02:44:46;;;;;;;0.80;0.38;;;19.00;47.00;;;;;;5073229;28;20025;-75
2022/02/15 02:47:12;;;;;;;1.05;0.40;;;22.90;49.20;;;;;;5073283;28;20093;-75
2022/02/15 02:49:37;;;;;;;0.75;0.30;;;23.40;49.50;;;;;;5072588;28;20029;-75
2022/02/15 02:52:04;;;;;;;0.60;0.35;;;20.80;48.10;;;;;;5072507;28;20029;-75
2022/02/15 02:54:30;;;;;;;0.68;0.32;;;24.00;49.40;;;;;;5055192;28;20024;-75
2022/02/15 02:56:59;;;;;;;1.08;0.47;;;19.40;47.50;;;;;;5054801;28;20024;-75
2022/02/15 02:59:25;;;;;;;1.48;0.38;;;19.10;47.10;;;;;;5072364;28;20029;-75
2022/02/15 03:01:51;;;;;;;1.15;0.40;;;23.90;49.50;;;;;;5072245;28;20387;-74
2022/02/15 03:04:16;;;;;;;1.05;0.40;;;19.90;47.60;;;;;;5072551;28;20036;-75
2022/02/15 03:06:42;;;;;;;1.25;0.65;;;20.40;47.90;;;;;;5054567;28;20449;-75
2022/02/15 03:09:08;;;;;;;1.63;0.45;;;19.60;47.40;;;;;;5091176;28;20052;-75
2022/02/15 03:11:34;;;;;;;1.50;0.50;;;19.90;47.60;;;;;;5092089;28;20111;-75
2022/02/15 03:14:00;;;;;;;1.45;0.47;;;23.50;49.30;;;;;;5092788;28;20541;-74
2022/02/15 03:16:27;;;;;;;0.85;0.50;;;17.90;46.20;;;;;;5057608;28;20027;-75
2022/02/15 03:18:53;;;;;;;1.52;0.50;;;20.20;47.40;;;;;;5054569;28;20032;-75
2022/02/15 03:21:19;;;;;;;1.38;0.40;;;19.80;47.30;;;;;;5072234;28;20062;-75
2022/02/15 03:23:45;;;;;;;1.55;0.50;;;20.00;47.60;;;;;;5054223;28;20506;-74
2022/02/15 03:26:11;;;;;;;2.03;0.40;;;19.50;47.10;;;;;;5072626;28;20562;-74
2022/02/15 03:28:37;;;;;;;1.25;0.40;;;23.80;49.20;;;;;;5054450;28;20017;-74
2022/02/15 03:31:04;;;;;;;0.60;0.30;;;23.60;49.40;;;;;;5071675;28;20047;-75
2022/02/15 03:33:30;;;;;;;0.98;0.47;;;19.50;47.00;;;;;;5071557;28;20514;-74
2022/02/15 03:35:56;;;;;;;2.22;0.70;;;18.00;46.50;;;;;;5072257;28;20033;-74
2022/02/15 03:38:22;;;;;;;0.93;0.40;;;20.20;47.50;;;;;;5072509;28;20067;-74
2022/02/15 03:43:33;;;;;;;2.00;0.57;;;23.90;49.60;;;;;;5091650;28;20025;-74
2022/02/15 03:45:58;;;;;;;0.80;0.30;;;19.70;47.50;;;;;;5092522;28;20038;-74
2022/02/15 03:48:24;;;;;;;0.90;0.40;;;19.90;47.50;;;;;;5092220;28;20016;-74
2022/02/15 03:50:50;;;;;;;0.65;0.30;;;19.80;47.20;;;;;;5074010;28;20419;-74
2022/02/15 03:53:17;;;;;;;1.35;0.63;;;19.90;47.70;;;;;;5091634;28;20030;-74
2022/02/15 03:55:44;;;;;;;0.57;0.30;;;20.10;47.70;;;;;;5092578;28;20024;-74
2022/02/15 03:58:10;;;;;;;1.00;0.30;;;19.00;47.20;;;;;;5092398;28;20051;-74
2022/02/15 04:00:36;;;;;;;0.93;0.40;;;22.80;49.10;;;;;;5073951;28;20028;-74
2022/02/15 04:03:03;;;;;;;0.82;0.52;;;18.10;46.70;;;;;;5060412;28;20025;-74
2022/02/15 04:05:29;;;;;;;1.42;0.40;;;19.70;47.60;;;;;;5053939;28;20564;-74
2022/02/15 04:07:54;;;;;;;0.40;0.30;;;19.90;47.70;;;;;;5080339;28;20024;-74
2022/02/15 04:10:20;;;;;;;2.60;0.52;;;22.80;49.30;;;;;;5092215;28;20035;-74
2022/02/15 04:12:47;;;;;;;0.95;0.30;;;18.60;47.00;;;;;;5073927;28;20020;-74
2022/02/15 04:15:14;;;;;;;1.10;0.50;;;19.60;47.40;;;;;;5085568;28;20040;-74
2022/02/15 04:17:40;;;;;;;0.50;0.30;;;20.20;47.70;;;;;;5071776;28;20023;-74
2022/02/15 04:20:06;;;;;;;0.95;0.38;;;18.30;46.80;;;;;;5072105;28;20500;-74
2022/02/15 04:22:32;;;;;;;0.40;0.30;;;23.50;49.30;;;;;;5071524;28;20024;-74
2022/02/15 04:25:00;;;;;;;1.85;0.50;;;24.00;50.00;;;;;;5071695;28;20074;-74
2022/02/15 04:27:27;;;;;;;0.50;0.20;;;18.70;47.30;;;;;;5072841;28;20047;-74
2022/02/15 04:29:53;;;;;;;0.98;0.35;;;18.90;47.40;;;;;;5075940;28;20376;-74
2022/02/15 04:32:19;;;;;;;0.45;0.25;;;20.80;48.70;;;;;;5075137;28;20143;-74
2022/02/15 04:34:44;;;;;;;0.57;0.43;;;24.00;50.00;;;;;;5075140;28;20051;-74
2022/02/15 04:37:10;;;;;;;1.10;0.50;;;23.40;50.00;;;;;;5075651;28;20032;-74
2022/02/15 04:39:36;;;;;;;1.08;0.40;;;17.60;47.00;;;;;;5075583;28;20029;-74
2022/02/15 04:42:02;;;;;;;1.50;0.40;;;23.40;50.00;;;;;;5082476;28;20023;-74
2022/02/15 04:44:28;;;;;;;1.25;0.35;;;17.80;47.00;;;;;;5095672;28;20039;-74
2022/02/15 04:46:54;;;;;;;0.63;0.20;;;23.10;49.70;;;;;;5096067;28;20032;-74
2022/02/15 04:49:20;;;;;;;0.68;0.30;;;19.70;47.90;;;;;;5095620;28;20050;-74
2022/02/15 04:51:46;;;;;;;0.77;0.30;;;17.40;46.70;;;;;;5076615;28;20459;-74
2022/02/15 04:54:12;;;;;;;1.13;0.45;;;18.50;47.30;;;;;;5055335;28;20103;-74
2022/02/15 04:56:38;;;;;;;0.77;0.40;;;23.80;50.00;;;;;;5055141;28;20067;-74
2022/02/15 04:59:04;;;;;;;0.90;0.40;;;19.50;47.90;;;;;;5055336;28;20025;-74
2022/02/15 05:01:30;;;;;;;0.93;0.30;;;19.90;48.10;;;;;;5054480;28;20025;-74
2022/02/15 05:03:55;;;;;;;0.25;0.15;;;22.60;49.30;;;;;;5051270;28;20560;-74
2022/02/15 05:06:21;;;;;;;1.15;0.43;;;19.70;47.80;;;;;;5084765;28;20056;-74
2022/02/15 05:08:47;;;;;;;0.70;0.35;;;19.30;47.60;;;;;;5090483;28;20032;-74
2022/02/15 05:11:13;;;;;;;0.75;0.45;;;19.90;47.80;;;;;;5094778;28;20051;-74
2022/02/15 05:13:39;;;;;;;0.30;0.20;;;23.00;49.30;;;;;;5074552;28;20483;-74
2022/02/15 05:16:05;;;;;;;0.55;0.30;;;19.80;48.40;;;;;;5075058;28;20054;-74
2022/02/15 05:18:30;;;;;;;0.88;0.38;;;18.80;47.30;;;;;;5074575;28;20021;-74
2022/02/15 05:21:01;;;;;;;0.38;0.20;;;19.10;47.50;;;;;;5085479;28;20077;-74
2022/02/15 05:23:30;;;;;;;0.22;0.17;;;22.80;49.40;;;;;;5094473;28;20024;-74
2022/02/15 05:25:56;;;;;;;1.50;0.35;;;18.90;47.50;;;;;;5094952;28;20024;-74
2022/02/15 05:28:22;;;;;;;0.73;0.30;;;17.40;46.40;;;;;;5076702;28;20031;-74
2022/02/15 05:30:48;;;;;;;0.98;0.40;;;23.60;49.50;;;;;;5077055;28;20032;-75
2022/02/15 05:33:13;;;;;;;0.20;0.10;;;23.00;49.20;;;;;;5076330;28;20118;-76
2022/02/15 05:35:40;;;;;;;0.73;0.50;;;17.40;46.40;;;;;;5094563;28;20024;-76
2022/02/15 05:38:05;;;;;;;1.20;0.32;;;20.00;47.50;;;;;;5082720;28;20471;-75
2022/02/15 05:40:31;;;;;;;2.03;0.43;;;19.30;47.20;;;;;;5073837;28;20020;-75
2022/02/15 05:42:57;;;;;;;0.55;0.30;;;20.10;47.40;;;;;;5055958;28;20017;-76
2022/02/15 05:45:24;;;;;;;0.82;0.35;;;20.10;47.50;;;;;;5074178;28;20123;-75
2022/02/15 05:47:50;;;;;;;0.45;0.30;;;20.10;47.30;;;;;;5074493;28;20024;-75
2022/02/15 05:53:00;;;;;;;0.55;0.30;;;18.00;46.30;;;;;;5074250;28;20046;-75
2022/02/15 05:55:26;;;;;;;1.08;0.30;;;18.50;46.60;;;;;;5055957;28;20024;-76
2022/02/15 05:57:52;;;;;;;0.70;0.40;;;23.50;48.90;;;;;;5074264;28;20056;-76
2022/02/15 06:00:18;;;;;;;0.60;0.40;;;19.70;47.00;;;;;;5073916;28;20024;-76
2022/02/15 06:02:44;;;;;;;0.47;0.17;;;22.90;48.60;;;;;;5074152;28;20407;-75
2022/02/15 06:05:10;;;;;;;0.45;0.30;;;22.50;48.20;;;;;;5073800;28;20037;-76
2022/02/15 06:07:36;;;;;;;0.65;0.40;;;19.20;46.90;;;;;;5061763;28;20031;-75
2022/02/15 06:10:03;;;;;;;0.50;0.20;;;17.60;45.80;;;;;;5093912;28;20035;-75
2022/02/15 06:12:28;;;;;;;0.85;0.30;;;19.30;46.50;;;;;;5089142;28;20048;-75
2022/02/15 06:14:54;;;;;;;0.73;0.30;;;19.30;46.60;;;;;;5075884;28;20524;-75
2022/02/15 06:17:20;;;;;;;1.10;0.30;;;20.10;47.00;;;;;;5093734;28;20020;-75
2022/02/15 06:19:46;;;;;;;1.65;0.50;;;19.80;47.00;;;;;;5075412;28;20107;-76
2022/02/15 06:22:12;;;;;;;1.15;0.40;;;18.80;46.30;;;;;;5093662;28;20480;-76
2022/02/15 06:24:37;;;;;;;0.57;0.22;;;19.40;46.50;;;;;;5093536;28;20040;-76
2022/02/15 06:27:04;;;;;;;0.35;0.20;;;23.50;48.60;;;;;;5094128;28;20070;-75
2022/02/15 06:29:31;;;;;;;0.57;0.20;;;17.30;45.60;;;;;;5093730;28;20032;-75
2022/02/15 06:31:57;;;;;;;0.80;0.30;;;19.00;46.10;;;;;;5093641;28;20111;-75
2022/02/15 06:34:24;;;;;;;0.60;0.25;;;19.40;46.50;;;;;;5093567;28;20086;-75
2022/02/15 06:36:50;;;;;;;0.93;0.28;;;18.00;45.80;;;;;;5093772;28;20020;-75
2022/02/15 06:39:16;;;;;;;0.82;0.40;;;18.90;46.40;;;;;;5093401;28;20055;-75
2022/02/15 06:41:42;;;;;;;1.40;0.32;;;19.60;46.70;;;;;;5088498;28;20109;-75
2022/02/15 06:44:07;;;;;;;0.70;0.50;;;23.00;48.40;;;;;;5054508;28;20119;-76
2022/02/15 06:46:34;;;;;;;1.45;0.30;;;19.80;46.80;;;;;;5073167;28;20036;-75
2022/02/15 06:49:00;;;;;;;0.50;0.32;;;18.70;46.00;;;;;;5073172;28;20055;-75
2022/02/15 06:51:25;;;;;;;1.20;0.30;;;19.40;46.50;;;;;;5071814;28;20052;-75
2022/02/15 06:53:51;;;;;;;0.52;0.20;;;23.20;48.50;;;;;;5072832;28;20036;-76
2022/02/15 06:56:17;;;;;;;0.38;0.20;;;23.80;48.90;;;;;;5072906;28;20055;-76
2022/02/15 06:58:43;;;;;;;0.47;0.15;;;22.80;48.30;;;;;;5072928;28;20020;-75
2022/02/15 07:01:09;;;;;;;0.63;0.20;;;19.40;46.60;;;;;;5073053;28;20416;-75
2022/02/15 07:03:35;;;;;;;0.88;0.40;;;17.20;45.50;;;;;;5072207;28;20384;-75
2022/02/15 07:06:01;;;;;;;1.02;0.40;;;24.00;48.80;;;;;;5072586;28;20123;-75
2022/02/15 07:08:27;;;;;;;0.90;0.22;;;19.60;46.50;;;;;;5085757;28;20461;-75
2022/02/15 07:10:54;;;;;;;1.85;0.50;;;18.10;46.00;;;;;;5092437;28;20032;-76
2022/02/15 07:13:25;;;;;;;0.40;0.30;;;23.60;48.60;;;;;;5072768;28;20111;-76
2022/02/15 07:15:52;;;;;;;0.90;0.40;;;19.50;45.50;;;;;;5071929;28;20067;-76
2022/02/15 07:18:18;;;;;;;0.68;0.40;;;20.00;46.60;;;;;;5054754;28;20066;-75
2022/02/15 07:20:44;;;;;;;1.02;0.30;;;18.60;45.90;;;;;;5072348;28;20017;-75
2022/02/15 07:23:13;;;;;;;1.48;0.35;;;17.40;45.20;;;;;;5054574;28;20032;-76
2022/02/15 07:25:41;;;;;;;1.35;0.50;;;18.10;45.60;;;;;;5072337;28;20479;-76
2022/02/15 07:28:07;;;;;;;0.90;0.35;;;18.10;45.50;;;;;;5072476;28;20479;-76
2022/02/15 07:30:35;;;;;;;0.47;0.20;;;19.00;45.90;;;;;;5072178;28;20058;-76
2022/02/15 07:33:02;;;;;;;0.98;0.30;;;18.80;45.80;;;;;;5054336;28;20028;-75
2022/02/15 07:35:28;;;;;;;1.50;0.45;;;18.30;45.20;;;;;;5053771;28;20087;-76
2022/02/15 07:37:54;;;;;;;1.98;0.40;;;19.50;46.00;;;;;;5071979;28;20021;-76
2022/02/15 07:40:21;;;;;;;0.85;0.40;;;17.70;45.00;;;;;;5071915;28;20472;-76
2022/02/15 07:42:48;;;;;;;1.08;0.40;;;19.40;45.70;;;;;;5071824;28;20055;-76
2022/02/15 07:45:18;;;;;;;2.85;0.50;;;23.50;47.50;;;;;;5071829;28;20058;-76
2022/02/15 07:47:48;;;;;;;0.52;0.28;;;19.90;46.00;;;;;;5071393;28;20020;-76
2022/02/15 07:50:15;;;;;;;1.02;0.40;;;23.40;47.10;;;;;;5071833;28;20104;-76
2022/02/15 07:52:41;;;;;;;1.13;0.40;;;17.90;44.40;;;;;;5071800;28;20024;-76
2022/02/15 07:55:07;;;;;;;1.55;0.43;;;17.70;44.50;;;;;;5071490;28;20059;-76
2022/02/15 07:57:33;;;;;;;1.73;0.50;;;20.30;45.90;;;;;;5048133;28;20021;-75
2022/02/15 07:59:59;;;;;;;3.47;0.90;;;22.50;47.10;;;;;;5056999;28;20082;-75
2022/02/15 08:02:24;;;;;;;2.17;0.30;;;17.30;44.50;;;;;;5060524;28;20024;-75
2022/02/15 08:04:50;;;;;;;7.47;0.65;;;17.50;44.50;;;;;;5065743;28;20053;-75
2022/02/15 08:07:16;;;;;;;6.50;0.60;;;19.90;45.90;;;;;;5048907;28;20047;-75
2022/02/15 08:09:42;;;;;;;3.92;0.50;;;19.90;45.90;;;;;;5074905;28;20035;-75
2022/02/15 08:12:17;;;;;;;5.53;0.80;;;20.00;46.10;;;;;;5060594;28;20038;-75
2022/02/15 08:14:46;;;;;;;4.15;0.70;;;22.50;47.20;;;;;;5069896;28;20037;-75
2022/02/15 08:17:13;;;;;;;1.33;0.60;;;18.90;44.30;;;;;;5052254;28;20032;-74
2022/02/15 08:19:39;;;;;;;2.45;0.40;;;19.70;45.60;;;;;;5070860;28;20556;-75
2022/02/15 08:22:05;;;;;;;5.40;0.45;;;22.90;48.10;;;;;;5066072;28;20025;-74
2022/02/15 08:24:31;;;;;;;1.65;0.68;;;18.60;45.30;;;;;;5042645;28;20084;-75
2022/02/15 08:26:58;;;;;;;1.90;0.50;;;20.40;46.30;;;;;;5063220;28;20025;-76
2022/02/15 08:29:24;;;;;;;4.97;0.88;;;18.70;45.20;;;;;;5045888;28;20033;-74
2022/02/15 08:31:50;;;;;;;2.83;0.50;;;17.50;45.10;;;;;;5065338;28;20037;-75
2022/02/15 08:34:16;;;;;;;7.40;0.80;;;17.60;44.80;;;;;;5067370;28;20025;-72
2022/02/15 08:36:42;;;;;;;3.42;0.57;;;18.40;45.40;;;;;;5064720;28;20081;-76
2022/02/15 08:39:08;;;;;;;2.00;0.70;;;19.70;46.20;;;;;;5066583;28;20021;-76
2022/02/15 08:41:34;;;;;;;7.35;0.60;;;17.60;45.10;;;;;;5059684;28;20023;-75
2022/02/15 08:44:00;;;;;;;1.30;0.40;;;19.30;45.90;;;;;;5085845;28;20027;-78
2022/02/15 08:46:26;;;;;;;1.83;0.50;;;22.60;47.80;;;;;;5086429;28;20024;-77
2022/02/15 08:48:52;;;;;;;3.47;0.70;;;17.90;45.10;;;;;;5083626;28;20040;-72
2022/02/15 08:51:19;;;;;;;2.45;0.60;;;24.00;48.60;;;;;;5048901;28;20444;-71
2022/02/15 08:53:49;;;;;;;2.35;0.40;;;22.90;48.00;;;;;;5063659;28;20032;-72
2022/02/15 08:56:15;;;;;;;4.25;0.88;;;18.70;45.60;;;;;;5057428;28;20063;-71
2022/02/15 08:58:42;;;;;;;1.88;0.55;;;17.60;45.30;;;;;;5045438;28;20025;-71
2022/02/15 09:01:09;;;;;;;3.10;0.60;;;17.40;45.30;;;;;;5046700;28;20075;-71
2022/02/15 09:03:35;;;;;;;3.42;0.70;;;17.80;45.30;;;;;;5053764;28;20026;-71
2022/02/15 09:06:01;;;;;;;3.83;0.50;;;23.40;48.20;;;;;;5053610;28;20047;-71
2022/02/15 09:08:29;;;;;;;1.52;0.60;;;17.70;45.20;;;;;;5072210;28;20460;-71
2022/02/15 09:10:55;;;;;;;1.13;0.40;;;23.70;48.10;;;;;;5076748;28;20500;-73
2022/02/15 09:13:21;;;;;;;1.35;0.57;;;23.60;48.20;;;;;;5086601;28;20020;-72
2022/02/15 09:15:47;;;;;;;4.30;0.73;;;19.90;46.40;;;;;;5066231;28;20064;-73
2022/02/15 09:18:13;;;;;;;2.25;0.50;;;20.10;46.60;;;;;;5068526;28;20032;-71
2022/02/15 09:20:38;;;;;;;2.60;0.70;;;19.10;46.10;;;;;;5070397;28;20033;-71
2022/02/15 09:23:05;;;;;;;2.63;0.80;;;23.50;48.30;;;;;;5068626;28;20105;-71
2022/02/15 09:25:31;;;;;;;1.52;0.63;;;23.70;48.20;;;;;;5066130;28;20056;-70
2022/02/15 09:27:58;;;;;;;2.53;0.55;;;19.80;46.40;;;;;;5068207;28;20071;-69
2022/02/15 09:30:25;;;;;;;2.80;0.60;;;23.40;48.30;;;;;;5066671;28;20823;-71
2022/02/15 09:32:51;;;;;;;2.75;0.70;;;19.30;46.20;;;;;;5068868;28;20442;-72
2022/02/15 09:35:16;;;;;;;3.50;0.70;;;19.70;46.70;;;;;;5088067;28;20126;-72
2022/02/15 09:37:42;;;;;;;1.90;0.70;;;19.30;46.30;;;;;;5089186;28;20034;-72
2022/02/15 09:40:10;;;;;;;2.20;0.50;;;19.70;46.70;;;;;;5069907;28;20431;-72
2022/02/15 09:42:37;;;;;;;1.63;0.60;;;17.90;45.40;;;;;;5079783;28;20052;-71
2022/02/15 09:45:09;;;;;;;1.25;0.50;;;19.60;46.50;;;;;;5066376;28;20568;-70
2022/02/15 09:47:37;;;;;;;1.30;0.60;;;20.00;45.30;;;;;;5047262;28;20029;-70
2022/02/15 09:50:08;;;;;;;2.35;0.77;;;19.90;46.60;;;;;;5055587;28;20036;-71
2022/02/15 09:52:35;;;;;;;2.08;0.60;;;20.00;46.10;;;;;;5064355;28;20455;-72
2022/02/15 09:55:02;;;;;;;2.33;0.70;;;19.70;46.90;;;;;;5069565;28;20067;-70
2022/02/15 09:57:28;;;;;;;1.58;0.43;;;23.60;48.70;;;;;;5066922;28;20024;-71
2022/02/15 09:59:55;;;;;;;2.38;0.55;;;20.00;47.20;;;;;;5054531;28;20071;-70
2022/02/15 10:02:27;;;;;;;2.50;0.40;;;19.70;46.50;;;;;;5046793;28;20557;-71
2022/02/15 10:04:54;;;;;;;1.23;0.57;;;23.70;48.70;;;;;;5053998;28;20095;-71
2022/02/15 10:07:21;;;;;;;1.67;0.60;;;20.00;46.80;;;;;;5067328;28;20487;-70
2022/02/15 10:10:02;;;;;;;1.38;0.50;;;18.90;46.50;;;;;;5067800;28;20449;-71
2022/02/15 10:12:28;;;;;;;3.45;0.60;;;19.30;45.60;;;;;;5054807;28;20029;-71
2022/02/15 10:14:55;;;;;;;0.90;0.40;;;18.40;46.40;;;;;;5039398;28;20029;-72
2022/02/15 10:17:23;;;;;;;1.08;0.60;;;20.40;47.20;;;;;;5063108;28;20451;-72
2022/02/15 10:19:50;;;;;;;2.78;0.50;;;19.90;46.80;;;;;;5066814;28;20044;-71
2022/02/15 10:22:19;;;;;;;3.33;0.75;;;18.60;46.20;;;;;;5067023;28;20112;-70
2022/02/15 10:25:02;;;;;;;2.55;0.60;;;20.00;46.80;;;;;;5064432;28;20115;-71
2022/02/15 10:27:31;;;;;;;1.88;0.55;;;19.40;44.80;;;;;;5066806;28;20036;-71
2022/02/15 10:29:58;;;;;;;2.78;0.70;;;19.50;46.80;;;;;;5062310;28;20483;-71
2022/02/15 10:32:25;;;;;;;2.05;0.50;;;19.80;47.00;;;;;;5046813;28;20033;-72
2022/02/15 10:34:56;;;;;;;1.20;0.50;;;19.90;47.00;;;;;;5036521;28;20041;-70
2022/02/15 10:37:26;;;;;;;1.70;0.50;;;19.40;45.80;;;;;;5065333;28;20028;-72
2022/02/15 10:39:56;;;;;;;1.85;0.50;;;19.50;46.30;;;;;;5067516;28;20555;-72
2022/02/15 10:42:23;;;;;;;0.93;0.50;;;24.30;49.20;;;;;;5061679;28;20025;-73
2022/02/15 10:45:00;;;;;;;1.08;0.50;;;19.90;46.90;;;;;;5067481;28;20028;-76
2022/02/15 10:47:31;;;;;;;1.55;0.40;;;17.40;46.10;;;;;;5067180;28;20178;-72
2022/02/15 10:50:06;;;;;;;1.45;0.45;;;18.80;46.20;;;;;;5067053;28;20044;-70
2022/02/15 10:52:33;;;;;;;2.83;0.63;;;21.10;46.10;;;;;;5066567;28;20040;-71
2022/02/15 10:54:59;;;;;;;2.97;0.60;;;24.10;49.50;;;;;;5056724;28;20653;-71
2022/02/15 10:57:26;;;;;;;2.05;0.60;;;17.50;46.30;;;;;;5030413;28;20037;-72
2022/02/15 10:59:53;;;;;;;1.13;0.47;;;22.70;48.70;;;;;;5056254;28;20220;-73
2022/02/15 11:02:25;;;;;;;1.27;0.60;;;23.20;49.10;;;;;;5047890;28;20036;-72
2022/02/15 11:04:51;;;;;;;1.90;0.57;;;19.80;46.20;;;;;;5056979;28;20558;-72
2022/02/15 11:07:20;;;;;;;2.35;0.70;;;20.20;48.30;;;;;;5056829;28;20032;-72
2022/02/15 11:10:16;;;;;;;3.47;0.70;;;19.90;47.30;;;;;;5077291;28;20020;-71
2022/02/15 11:13:01;;;;;;;2.17;0.50;;;19.90;45.20;;;;;;5078236;28;20493;-72
2022/02/15 11:15:30;;;;;;;0.82;0.47;;;19.90;45.20;;;;;;5074138;28;20024;-73
2022/02/15 11:18:07;;;;;;;2.58;0.68;;;19.10;46.60;;;;;;5056140;28;20016;-74
2022/02/15 11:20:50;;;;;;;4.32;0.60;;;19.40;45.40;;;;;;5068662;28;20028;-74
2022/02/15 11:23:18;;;;;;;2.20;0.50;;;20.50;46.70;;;;;;5048836;28;20537;-71
2022/02/15 11:25:45;;;;;;;2.10;0.43;;;18.20;46.30;;;;;;5066920;28;20107;-72
2022/02/15 11:28:16;;;;;;;2.22;0.68;;;17.40;46.40;;;;;;5068600;28;20106;-70
2022/02/15 11:30:45;;;;;;;1.23;0.55;;;19.90;47.00;;;;;;5063184;28;20526;-72
2022/02/15 11:33:21;;;;;;;2.13;0.50;;;19.80;45.60;;;;;;5065867;28;20036;-72
2022/02/15 11:35:55;;;;;;;1.33;0.40;;;19.50;45.50;;;;;;5045917;28;20031;-71
2022/02/15 11:38:21;;;;;;;2.05;0.60;;;19.80;45.40;;;;;;5045748;28;20025;-73
2022/02/15 11:41:07;;;;;;;1.33;0.50;;;17.40;46.10;;;;;;5049977;28;20406;-72
2022/02/15 11:43:35;;;;;;;4.20;0.73;;;20.30;44.80;;;;;;5060545;28;20031;-72
2022/02/15 11:46:02;;;;;;;2.10;0.50;;;20.10;47.00;;;;;;5065799;28;20073;-73
2022/02/15 11:48:34;;;;;;;2.33;0.57;;;20.20;47.00;;;;;;5064857;28;20077;-73
2022/02/15 11:51:00;;;;;;;1.33;0.55;;;20.30;46.10;;;;;;5066272;28;20032;-72
2022/02/15 11:53:28;;;;;;;1.70;0.68;;;17.30;46.40;;;;;;5066064;28;20020;-73
2022/02/15 11:55:54;;;;;;;3.33;0.70;;;19.60;47.70;;;;;;5066072;28;20263;-72
2022/02/15 11:58:20;;;;;;;1.83;0.70;;;18.10;47.00;;;;;;5059431;28;20412;-71
2022/02/15 12:00:46;;;;;;;3.08;0.50;;;17.50;46.60;;;;;;5047171;28;20109;-70
2022/02/15 12:03:18;;;;;;;4.47;1.00;;;18.10;47.20;;;;;;5046180;28;20686;-70
2022/02/15 12:05:46;;;;;;;3.03;0.60;;;19.10;46.20;;;;;;5052459;28;20123;-70
2022/02/15 12:08:13;;;;;;;4.13;0.68;;;19.30;47.70;;;;;;5068777;28;20024;-70
2022/02/15 12:10:43;;;;;;;2.13;1.02;;;18.70;47.50;;;;;;5058798;28;20029;-70
2022/02/15 12:13:17;;;;;;;3.80;0.60;;;23.40;50.00;;;;;;5046271;28;20021;-70
2022/02/15 12:15:50;;;;;;;4.50;0.95;;;19.40;46.70;;;;;;5062225;28;20047;-70
2022/02/15 12:18:28;;;;;;;1.58;0.52;;;18.80;47.00;;;;;;5075124;28;20539;-70
2022/02/15 12:20:56;;;;;;;3.00;0.60;;;21.10;47.20;;;;;;5080991;28;20626;-70
2022/02/15 12:23:26;;;;;;;10.00;1.40;;;20.60;49.20;;;;;;5045537;28;20106;-69
2022/02/15 12:25:52;;;;;;;2.60;0.95;;;19.30;47.40;;;;;;5045797;28;20037;-72
2022/02/15 12:28:25;;;;;;;2.45;0.70;;;20.90;49.40;;;;;;5046766;28;20572;-70
2022/02/15 12:30:51;;;;;;;;;;;21.00;47.80;;;;;;5030456;28;20029;-69
2022/02/15 12:33:18;;;;;;;2.28;0.68;;;21.70;46.90;;;;;;5059191;28;20506;-70
2022/02/15 12:35:45;;;;;;;4.75;0.70;;;20.10;49.10;;;;;;5084748;28;20023;-70
2022/02/15 12:38:10;;;;;;;2.63;0.68;;;20.30;49.20;;;;;;5065608;28;20122;-70
2022/02/15 12:40:39;;;;;;;11.27;0.90;;;19.30;49.10;;;;;;5044272;28;20104;-71
2022/02/15 12:43:05;;;;;;;15.65;1.27;;;24.10;50.80;;;;;;5065828;28;20021;-71
2022/02/15 12:45:43;;;;;;;10.30;1.10;;;20.20;49.70;;;;;;5045577;28;20592;-70
2022/02/15 12:48:18;;;;;;;5.88;0.93;;;20.00;46.40;;;;;;5046342;28;20115;-70
2022/02/15 12:50:45;;;;;;;6.22;1.02;;;19.20;44.60;;;;;;5052490;28;20375;-70
2022/02/15 12:53:11;;;;;;;7.93;1.00;;;20.70;47.70;;;;;;5059239;28;20116;-70
2022/02/15 12:55:37;;;;;;;10.68;1.10;;;20.90;48.60;;;;;;5063414;28;20609;-71